Time;durP1;ratioP1;P1;durP2;ratioP2;P2;SDS_P1;SDS_P2;PMS_P1;PMS_P2;Temp;Humidity;BMP_temperature;BMP_pressure;BME280_temperature;BME280_humidity;BME280_pressure;Samples;Min_cycle;Max_cycle;Signal;HPM_P1;HPM_P2
2021/07/06 00:00:24;;;;;;;11.23;7.25;;;;;;;16.24;100.00;100423.22;3598663;39;20129;-61
2021/07/06 00:02:51;;;;;;;10.50;7.93;;;;;;;16.33;100.00;100427.53;3598552;39;20038;-60
2021/07/06 00:05:19;;;;;;;9.48;8.13;;;;;;;16.37;100.00;100426.16;3596944;39;20045;-61
2021/07/06 00:07:47;;;;;;;10.32;7.88;;;;;;;16.35;100.00;100420.03;3599640;39;20023;-61
2021/07/06 00:10:15;;;;;;;10.27;7.47;;;;;;;16.35;100.00;100420.03;3594174;39;20029;-61
2021/07/06 00:12:42;;;;;;;9.77;7.63;;;;;;;16.32;100.00;100415.00;3599561;39;20302;-61
2021/07/06 00:15:11;;;;;;;9.68;7.50;;;;;;;16.37;100.00;100425.28;3593467;39;20257;-61
2021/07/06 00:17:51;;;;;;;11.68;8.38;;;;;;;16.36;100.00;100413.59;3621902;22;20057;-61
2021/07/06 00:20:19;;;;;;;11.95;7.43;;;;;;;16.40;100.00;100412.19;3597336;39;20047;-62
2021/07/06 00:22:47;;;;;;;12.13;7.22;;;;;;;16.45;100.00;100403.50;3598508;39;20032;-61
2021/07/06 00:25:14;;;;;;;12.27;8.02;;;;;;;16.50;100.00;100411.09;3595935;39;20034;-61
2021/07/06 00:27:40;;;;;;;10.23;8.10;;;;;;;16.44;100.00;100402.66;3598084;39;20060;-61
2021/07/06 00:30:09;;;;;;;14.52;8.15;;;;;;;16.48;100.00;100380.56;3597451;39;20068;-62
2021/07/06 00:32:35;;;;;;;11.05;7.13;;;;;;;16.51;100.00;100380.19;3599022;39;20044;-62
2021/07/06 00:35:02;;;;;;;11.13;7.80;;;;;;;16.49;100.00;100379.50;3599459;39;20032;-61
2021/07/06 00:37:28;;;;;;;10.13;7.63;;;;;;;16.48;100.00;100375.94;3599615;39;20065;-61
2021/07/06 00:39:57;;;;;;;11.88;8.55;;;;;;;16.43;100.00;100373.81;3598148;39;20055;-61
2021/07/06 00:42:24;;;;;;;10.50;7.95;;;;;;;16.39;100.00;100377.91;3598219;39;20079;-62
2021/07/06 00:44:50;;;;;;;10.95;7.70;;;;;;;16.38;100.00;100388.97;3597523;39;20088;-61
2021/07/06 00:47:29;;;;;;;11.98;8.02;;;;;;;16.38;100.00;100387.09;3599191;39;20036;-62
2021/07/06 00:49:55;;;;;;;13.45;8.18;;;;;;;16.40;100.00;100387.75;3598045;39;20056;-62
2021/07/06 00:52:22;;;;;;;10.30;8.10;;;;;;;16.41;100.00;100386.72;3594022;39;20070;-62
2021/07/06 00:54:48;;;;;;;11.73;8.35;;;;;;;16.40;100.00;100374.19;3593598;39;20038;-62
2021/07/06 00:57:17;;;;;;;11.30;7.85;;;;;;;16.40;100.00;100366.03;3600863;39;20033;-62
2021/07/06 00:59:43;;;;;;;11.27;8.55;;;;;;;16.39;100.00;100372.47;3601098;39;20057;-62
2021/07/06 01:02:10;;;;;;;12.57;8.52;;;;;;;16.42;100.00;100369.38;3597547;39;20050;-61
2021/07/06 01:04:36;;;;;;;14.27;8.45;;;;;;;16.39;100.00;100369.75;3594877;39;20021;-61
2021/07/06 01:07:03;;;;;;;13.05;8.50;;;;;;;16.40;100.00;100362.44;3597120;39;20074;-62
2021/07/06 01:09:30;;;;;;;11.50;8.82;;;;;;;16.34;100.00;100358.63;3598311;39;20058;-61
2021/07/06 01:11:56;;;;;;;11.10;8.43;;;;;;;16.34;100.00;100347.78;3595820;39;20028;-62
2021/07/06 01:14:24;;;;;;;12.77;7.82;;;;;;;16.37;100.00;100346.53;3598658;39;20055;-62
2021/07/06 01:16:51;;;;;;;13.80;8.68;;;;;;;16.43;100.00;100351.22;3597128;39;20035;-62
2021/07/06 01:19:18;;;;;;;11.65;8.63;;;;;;;16.44;100.00;100342.91;3596460;39;20103;-62
2021/07/06 01:21:45;;;;;;;9.98;8.10;;;;;;;16.48;100.00;100337.91;3600468;39;20031;-61
2021/07/06 01:24:13;;;;;;;10.93;7.97;;;;;;;16.52;100.00;100333.81;3599131;39;20302;-61
2021/07/06 01:26:39;;;;;;;9.57;7.22;;;;;;;16.53;100.00;100338.19;3599107;39;20028;-61
2021/07/06 01:29:05;;;;;;;8.90;7.25;;;;;;;16.57;100.00;100341.38;3600419;39;20042;-61
2021/07/06 01:31:32;;;;;;;11.38;7.88;;;;;;;16.66;100.00;100332.09;3599552;39;20060;-61
2021/07/06 01:33:58;;;;;;;10.27;7.07;;;;;;;16.72;100.00;100312.31;3601509;39;20297;-61
2021/07/06 01:36:25;;;;;;;8.88;6.95;;;;;;;16.66;100.00;100307.66;3600320;39;20060;-61
2021/07/06 01:38:51;;;;;;;10.70;6.95;;;;;;;16.70;100.00;100313.56;3599794;39;20075;-61
2021/07/06 01:41:19;;;;;;;9.25;7.55;;;;;;;16.75;100.00;100311.94;3596817;39;20044;-62
2021/07/06 01:43:46;;;;;;;7.63;6.65;;;;;;;16.75;100.00;100317.38;3600850;39;20036;-62
2021/07/06 01:46:12;;;;;;;9.90;6.25;;;;;;;16.75;100.00;100290.19;3596509;39;20109;-61
2021/07/06 01:48:39;;;;;;;7.90;6.45;;;;;;;16.69;100.00;100295.56;3599017;39;20314;-61
2021/07/06 01:51:05;;;;;;;8.98;6.55;;;;;;;16.73;100.00;100303.13;3597191;39;20059;-61
2021/07/06 01:53:31;;;;;;;7.82;6.43;;;;;;;16.71;100.00;100297.06;3596467;39;20032;-62
2021/07/06 01:55:58;;;;;;;10.63;6.57;;;;;;;16.73;100.00;100291.44;3601476;39;20039;-62
2021/07/06 01:58:27;;;;;;;10.40;6.55;;;;;;;16.71;100.00;100278.03;3599682;39;20091;-61
2021/07/06 02:00:54;;;;;;;;;;;;;;;16.72;100.00;100273.44;3595047;39;21040;-62
2021/07/06 02:03:21;;;;;;;9.88;6.38;;;;;;;16.75;100.00;100268.44;3598127;39;19940;-61
2021/07/06 02:05:49;;;;;;;8.07;5.90;;;;;;;16.75;100.00;100263.00;3593886;39;20031;-61
2021/07/06 02:08:18;;;;;;;8.23;6.15;;;;;;;16.77;100.00;100271.00;3597068;39;20340;-61
2021/07/06 02:10:46;;;;;;;12.15;6.35;;;;;;;16.80;100.00;100276.88;3599104;39;20028;-63
2021/07/06 02:13:14;;;;;;;9.63;6.10;;;;;;;16.78;100.00;100278.97;3598824;39;20020;-62
2021/07/06 02:15:43;;;;;;;7.88;6.03;;;;;;;16.80;100.00;100276.88;3595501;39;20039;-61
2021/07/06 02:18:14;;;;;;;9.57;6.40;;;;;;;16.86;100.00;100277.13;3595652;39;20055;-62
2021/07/06 02:20:41;;;;;;;11.20;6.38;;;;;;;16.87;100.00;100265.25;3595850;39;20028;-62
2021/07/06 02:23:07;;;;;;;8.25;5.55;;;;;;;16.91;100.00;100272.00;3598313;39;20363;-62
2021/07/06 02:25:34;;;;;;;7.18;4.93;;;;;;;16.95;100.00;100262.44;3595131;39;20066;-62
2021/07/06 02:28:00;;;;;;;8.23;5.38;;;;;;;16.94;100.00;100255.31;3598369;39;20039;-61
2021/07/06 02:30:27;;;;;;;8.93;5.10;;;;;;;16.89;100.00;100241.47;3601727;39;20028;-62
2021/07/06 02:32:55;;;;;;;5.95;4.63;;;;;;;16.87;100.00;100238.06;3600809;39;20036;-62
2021/07/06 02:35:26;;;;;;;5.00;3.70;;;;;;;16.86;100.00;100236.38;3601772;39;20028;-63
2021/07/06 02:37:52;;;;;;;5.13;3.90;;;;;;;16.88;100.00;100223.47;3599126;39;20031;-62
2021/07/06 02:40:19;;;;;;;4.43;3.97;;;;;;;16.88;100.00;100207.16;3597166;39;20486;-62
2021/07/06 02:42:46;;;;;;;5.22;4.22;;;;;;;16.83;100.00;100207.72;3595600;39;20038;-62
2021/07/06 02:45:15;;;;;;;6.15;3.72;;;;;;;16.85;100.00;100208.34;3598249;39;20383;-63
2021/07/06 02:47:42;;;;;;;6.70;3.58;;;;;;;16.80;100.00;100200.78;3598388;39;20044;-62
2021/07/06 02:50:12;;;;;;;4.55;3.53;;;;;;;16.78;100.00;100191.13;3596626;39;20025;-63
2021/07/06 02:52:38;;;;;;;7.00;3.30;;;;;;;16.76;100.00;100185.91;3601487;39;20290;-62
2021/07/06 02:55:07;;;;;;;5.38;3.65;;;;;;;16.75;100.00;100186.91;3599845;39;20032;-63
2021/07/06 02:57:36;;;;;;;3.47;2.95;;;;;;;16.71;100.00;100182.94;3599681;39;20345;-62
2021/07/06 03:00:16;;;;;;;8.43;3.15;;;;;;;16.73;100.00;100178.13;3595493;39;20461;-63
2021/07/06 03:02:45;;;;;;;3.50;3.15;;;;;;;16.72;100.00;100159.31;3598846;39;20311;-62
2021/07/06 03:05:14;;;;;;;;;;;;;;;16.70;100.00;100156.78;3597483;39;20028;-62
2021/07/06 03:07:42;;;;;;;3.42;2.72;;;;;;;16.63;100.00;100156.69;3599126;39;19931;-62
2021/07/06 03:10:11;;;;;;;6.35;2.72;;;;;;;16.62;100.00;100146.03;3597881;39;20398;-61
2021/07/06 03:12:38;;;;;;;4.10;2.70;;;;;;;16.73;100.00;100144.69;3596003;39;20044;-62
2021/07/06 03:15:06;;;;;;;4.28;2.53;;;;;;;16.70;100.00;100147.81;3599412;39;20044;-61
2021/07/06 03:17:32;;;;;;;3.92;2.22;;;;;;;16.73;100.00;100142.81;3594712;39;20036;-62
2021/07/06 03:20:00;;;;;;;4.60;2.20;;;;;;;16.73;100.00;100145.53;3596376;39;20059;-62
2021/07/06 03:22:28;;;;;;;4.05;2.40;;;;;;;16.73;100.00;100129.22;3596774;39;20036;-62
2021/07/06 03:24:54;;;;;;;5.63;2.10;;;;;;;16.72;100.00;100132.97;3601620;39;20032;-62
2021/07/06 03:27:21;;;;;;;2.80;2.25;;;;;;;16.73;100.00;100140.09;3600170;39;20067;-62
2021/07/06 03:29:47;;;;;;;4.38;2.00;;;;;;;16.76;100.00;100139.69;3596994;39;20069;-62
2021/07/06 03:32:13;;;;;;;4.22;1.92;;;;;;;16.78;100.00;100143.09;3600125;39;20047;-63
2021/07/06 03:34:41;;;;;;;2.72;1.67;;;;;;;16.80;100.00;100138.28;3599509;39;20440;-62
2021/07/06 03:37:09;;;;;;;3.55;2.05;;;;;;;16.84;100.00;100122.41;3599251;39;20027;-61
2021/07/06 03:39:40;;;;;;;5.63;1.83;;;;;;;16.84;100.00;100129.72;3595066;39;20032;-61
2021/07/06 03:42:09;;;;;;;1.83;1.63;;;;;;;16.85;100.00;100120.56;3596194;39;20055;-61
2021/07/06 03:44:36;;;;;;;2.92;1.45;;;;;;;16.91;100.00;100125.22;3595686;39;20036;-62
2021/07/06 03:47:04;;;;;;;2.75;1.83;;;;;;;16.93;100.00;100128.59;3598147;39;20024;-62
2021/07/06 03:49:31;;;;;;;2.95;1.60;;;;;;;16.96;100.00;100122.75;3603330;39;20072;-61
2021/07/06 03:51:57;;;;;;;1.83;1.52;;;;;;;16.98;100.00;100129.69;3597278;39;20391;-62
2021/07/06 03:54:23;;;;;;;4.72;1.80;;;;;;;17.02;100.00;100116.56;3595744;39;20052;-62
2021/07/06 03:56:51;;;;;;;3.38;2.17;;;;;;;17.05;100.00;100115.28;3599414;39;20039;-62
2021/07/06 03:59:18;;;;;;;2.92;1.85;;;;;;;17.08;100.00;100117.66;3598416;39;20075;-62
2021/07/06 04:01:44;;;;;;;1.55;1.35;;;;;;;17.12;100.00;100117.06;3598983;39;20046;-62
2021/07/06 04:04:10;;;;;;;2.78;1.50;;;;;;;17.10;100.00;100119.13;3595340;39;20028;-62
2021/07/06 04:06:37;;;;;;;2.78;1.80;;;;;;;17.09;100.00;100114.72;3594188;39;20025;-62
2021/07/06 04:12:08;;;;;;;2.65;1.52;;;;;;;17.14;100.00;100087.78;3633621;23;20048;-63
2021/07/06 04:14:34;;;;;;;2.33;1.55;;;;;;;17.20;100.00;100066.28;3606995;39;20044;-63
2021/07/06 04:17:00;;;;;;;3.08;1.50;;;;;;;17.23;100.00;100064.00;3604371;39;20146;-63
2021/07/06 04:19:27;;;;;;;3.13;1.70;;;;;;;17.23;100.00;100049.56;3607837;39;20043;-63
2021/07/06 04:21:53;;;;;;;1.75;1.60;;;;;;;17.22;100.00;100056.03;3607082;39;20036;-62
2021/07/06 04:24:20;;;;;;;4.50;1.55;;;;;;;17.24;100.00;100067.53;3606910;39;20048;-63
2021/07/06 04:26:46;;;;;;;3.42;1.92;;;;;;;17.27;100.00;100076.16;3606651;39;20028;-62
2021/07/06 04:29:14;;;;;;;3.55;2.03;;;;;;;17.31;100.00;100071.16;3606776;39;20298;-63
2021/07/06 04:31:40;;;;;;;2.53;1.50;;;;;;;17.30;100.00;100083.09;3605588;39;20060;-62
2021/07/06 04:34:07;;;;;;;1.70;1.40;;;;;;;17.28;100.00;100076.97;3607296;39;20054;-62
2021/07/06 04:36:33;;;;;;;1.92;1.50;;;;;;;17.36;100.00;100071.41;3606398;39;20032;-63
2021/07/06 04:39:00;;;;;;;1.90;1.50;;;;;;;17.40;100.00;100078.13;3607285;39;20028;-63
2021/07/06 04:41:27;;;;;;;3.58;1.60;;;;;;;17.42;100.00;100073.31;3607367;39;20036;-63
2021/07/06 04:43:53;;;;;;;3.08;1.60;;;;;;;17.50;100.00;100083.19;3604405;39;20051;-63
2021/07/06 04:46:21;;;;;;;2.92;1.42;;;;;;;17.45;100.00;100082.97;3607562;39;20428;-62
2021/07/06 04:48:47;;;;;;;3.83;1.80;;;;;;;17.46;100.00;100074.59;3608172;39;20028;-62
2021/07/06 04:51:15;;;;;;;3.60;1.40;;;;;;;17.48;100.00;100077.94;3607218;39;20055;-63
2021/07/06 04:53:42;;;;;;;3.90;1.73;;;;;;;17.56;100.00;100068.78;3602498;39;20424;-62
2021/07/06 04:56:08;;;;;;;1.77;1.20;;;;;;;17.57;100.00;100075.06;3606881;39;20116;-63
2021/07/06 04:58:37;;;;;;;2.25;1.63;;;;;;;17.58;100.00;100060.41;3607432;39;20040;-63
2021/07/06 05:01:04;;;;;;;1.65;1.40;;;;;;;17.58;100.00;100076.72;3608010;39;20042;-61
2021/07/06 05:03:33;;;;;;;3.22;1.50;;;;;;;17.69;100.00;100087.06;3608729;39;20034;-61
2021/07/06 05:06:00;;;;;;;3.60;1.45;;;;;;;17.75;100.00;100094.41;3607808;39;20416;-62
2021/07/06 05:08:27;;;;;;;3.13;1.33;;;;;;;17.79;100.00;100092.97;3608095;39;20059;-62
2021/07/06 05:10:54;;;;;;;3.03;1.50;;;;;;;17.80;100.00;100100.09;3608485;39;20047;-62
2021/07/06 05:13:21;;;;;;;2.85;1.63;;;;;;;17.88;100.00;100092.81;3608438;39;20036;-61
2021/07/06 05:15:47;;;;;;;2.97;1.58;;;;;;;17.89;100.00;100099.91;3608826;39;20042;-62
2021/07/06 05:18:14;;;;;;;2.65;1.55;;;;;;;17.89;100.00;100099.91;3606984;39;20040;-61
2021/07/06 05:20:42;;;;;;;2.70;1.55;;;;;;;17.93;100.00;100098.50;3604372;39;20107;-62
2021/07/06 05:23:08;;;;;;;3.72;1.85;;;;;;;17.99;100.00;100092.22;3603486;39;20063;-62
2021/07/06 05:25:35;;;;;;;12.55;3.13;;;;;;;17.99;100.00;100086.78;3604173;39;20038;-62
2021/07/06 05:28:01;;;;;;;12.98;3.33;;;;;;;17.97;100.00;100086.16;3606534;39;20035;-62
2021/07/06 05:30:28;;;;;;;6.97;3.00;;;;;;;17.90;100.00;100093.47;3603787;39;20104;-63
2021/07/06 05:32:54;;;;;;;8.07;2.75;;;;;;;17.96;100.00;100089.91;3605489;39;20034;-62
2021/07/06 05:35:21;;;;;;;9.77;2.55;;;;;;;18.03;100.00;100086.19;3596677;39;20057;-63
2021/07/06 05:37:49;;;;;;;11.57;3.20;;;;;;;18.03;100.00;100090.78;3603804;39;20036;-62
2021/07/06 05:40:16;;;;;;;10.35;3.85;;;;;;;18.09;100.00;100084.50;3605838;39;20062;-62
2021/07/06 05:42:43;;;;;;;12.85;3.45;;;;;;;18.11;100.00;100077.00;3607230;39;20046;-62
2021/07/06 05:45:10;;;;;;;9.50;3.13;;;;;;;18.19;100.00;100068.63;3607359;39;20032;-62
2021/07/06 05:47:38;;;;;;;10.10;3.58;;;;;;;18.26;100.00;100076.00;3607506;39;20059;-62
2021/07/06 05:50:06;;;;;;;16.27;3.65;;;;;;;18.26;100.00;100062.38;3606985;39;20104;-63
2021/07/06 05:52:33;;;;;;;17.30;3.95;;;;;;;18.29;100.00;100061.97;3606279;39;20059;-63
2021/07/06 05:55:01;;;;;;;14.82;4.10;;;;;;;18.32;100.00;100069.72;3606475;39;20047;-62
2021/07/06 05:57:30;;;;;;;13.02;4.15;;;;;;;18.31;100.00;100062.59;3602757;39;20030;-62
2021/07/06 05:59:57;;;;;;;12.20;3.38;;;;;;;18.31;100.00;100087.09;3605428;39;20124;-63
2021/07/06 06:02:23;;;;;;;12.10;3.53;;;;;;;18.37;100.00;100075.38;3604192;39;20047;-63
2021/07/06 06:04:50;;;;;;;10.25;3.13;;;;;;;18.42;100.00;100077.47;3603699;39;20039;-63
2021/07/06 06:07:16;;;;;;;16.40;3.97;;;;;;;18.39;100.00;100062.41;3606469;39;20298;-62
2021/07/06 06:09:43;;;;;;;11.57;2.80;;;;;;;18.47;100.00;100075.81;3606072;39;20032;-63
2021/07/06 06:12:11;;;;;;;13.88;3.95;;;;;;;18.43;100.00;100069.09;3602475;39;20062;-62
2021/07/06 06:14:38;;;;;;;10.27;2.40;;;;;;;18.50;100.00;100063.66;3605356;39;20046;-63
2021/07/06 06:17:05;;;;;;;8.45;2.45;;;;;;;18.53;100.00;100060.53;3603376;39;20413;-63
2021/07/06 06:19:31;;;;;;;6.07;2.13;;;;;;;18.54;100.00;100063.03;3606786;39;20040;-63
2021/07/06 06:21:58;;;;;;;9.65;2.70;;;;;;;18.56;100.00;100066.41;3605056;39;20038;-62
2021/07/06 06:24:24;;;;;;;4.82;2.30;;;;;;;18.63;100.00;100068.28;3608091;39;20406;-63
2021/07/06 06:26:51;;;;;;;6.30;2.05;;;;;;;18.67;100.00;100058.66;3606233;39;20046;-62
2021/07/06 06:29:19;;;;;;;5.07;2.30;;;;;;;18.68;100.00;100063.91;3607617;39;20068;-62
2021/07/06 06:31:46;;;;;;;4.77;2.13;;;;;;;18.71;100.00;100062.63;3605211;39;20024;-63
2021/07/06 06:34:13;;;;;;;3.80;2.22;;;;;;;18.73;100.00;100057.81;3602909;39;20068;-63
2021/07/06 06:36:39;;;;;;;3.67;1.95;;;;;;;18.84;100.00;100065.34;3604463;39;20048;-64
2021/07/06 06:39:07;;;;;;;5.35;2.17;;;;;;;18.87;100.00;100050.50;3604699;39;20048;-62
2021/07/06 06:41:33;;;;;;;5.80;2.17;;;;;;;18.88;100.00;100065.81;3604652;39;20293;-64
2021/07/06 06:44:00;;;;;;;6.07;2.92;;;;;;;18.92;100.00;100061.63;3608027;39;20332;-63
2021/07/06 06:46:27;;;;;;;3.47;2.15;;;;;;;18.97;100.00;100063.72;3607927;39;20064;-65
2021/07/06 06:48:54;;;;;;;5.50;1.90;;;;;;;19.01;100.00;100067.69;3605132;39;20035;-62
2021/07/06 06:51:20;;;;;;;3.45;2.00;;;;;;;19.05;100.00;100072.53;3607204;39;20034;-62
2021/07/06 06:53:47;;;;;;;4.72;2.17;;;;;;;19.06;100.00;100078.81;3605060;39;20032;-63
2021/07/06 06:56:13;;;;;;;4.90;1.98;;;;;;;19.16;100.00;100079.22;3607961;39;20045;-62
2021/07/06 06:58:40;;;;;;;3.03;1.95;;;;;;;19.17;100.00;100080.03;3608277;39;20100;-62
2021/07/06 07:03:36;;;;;;;3.50;1.90;;;;;;;19.22;100.00;100083.81;3656380;22;20036;-62
2021/07/06 07:06:03;;;;;;;5.15;2.05;;;;;;;19.31;100.00;100083.59;3603480;39;20034;-62
2021/07/06 07:08:50;;;;;;;3.95;1.70;;;;;;;19.34;100.00;100078.53;3625755;23;20063;-61
2021/07/06 07:11:17;;;;;;;3.65;2.05;;;;;;;19.44;100.00;100080.84;3571077;40;20052;-62
2021/07/06 07:13:44;;;;;;;6.95;2.40;;;;;;;19.40;100.00;100080.44;3573564;40;20056;-62
2021/07/06 07:16:10;;;;;;;3.22;2.15;;;;;;;19.46;100.00;100066.97;3577241;40;20025;-62
2021/07/06 07:18:38;;;;;;;8.10;2.08;;;;;;;19.41;100.00;100067.63;3578509;40;20072;-62
2021/07/06 07:21:05;;;;;;;3.35;1.80;;;;;;;19.28;100.00;100081.31;3575252;40;20269;-62
2021/07/06 07:23:31;;;;;;;5.35;2.30;;;;;;;19.29;100.00;100080.22;3577055;40;20029;-62
2021/07/06 07:25:58;;;;;;;4.30;2.33;;;;;;;19.23;100.00;100085.50;3576697;40;20056;-62
2021/07/06 07:28:24;;;;;;;8.32;2.38;;;;;;;19.15;100.00;100080.25;3577728;39;20123;-62
2021/07/06 07:30:51;;;;;;;4.53;2.05;;;;;;;19.05;100.00;100088.88;3577074;40;20041;-62
2021/07/06 07:33:17;;;;;;;7.05;2.85;;;;;;;18.96;100.00;100078.38;3576551;40;20039;-61
2021/07/06 07:35:45;;;;;;;6.28;2.08;;;;;;;19.00;100.00;100079.66;3575449;40;20032;-62
2021/07/06 07:38:11;;;;;;;4.55;2.20;;;;;;;19.05;100.00;100085.28;3575153;40;20380;-62
2021/07/06 07:40:38;;;;;;;5.03;2.15;;;;;;;19.06;100.00;100078.81;3576918;39;20118;-63
2021/07/06 07:43:07;;;;;;;6.63;2.10;;;;;;;19.11;100.00;100081.75;3577198;40;20036;-63
2021/07/06 07:45:34;;;;;;;5.05;2.35;;;;;;;19.19;100.00;100083.41;3574238;40;20045;-62
2021/07/06 07:48:01;;;;;;;6.47;2.28;;;;;;;19.15;100.00;100074.78;3574829;40;20370;-62
2021/07/06 07:50:27;;;;;;;4.35;2.40;;;;;;;19.25;100.00;100080.66;3576694;40;20084;-62
2021/07/06 07:52:55;;;;;;;3.13;2.08;;;;;;;19.21;100.00;100086.75;3576311;40;20047;-62
2021/07/06 07:55:22;;;;;;;5.50;2.60;;;;;;;18.87;100.00;100089.53;3576795;40;20061;-65
2021/07/06 07:57:49;;;;;;;7.20;2.65;;;;;;;18.70;100.00;100101.84;3575860;40;20043;-64
2021/07/06 08:00:16;;;;;;;4.50;2.70;;;;;;;18.46;100.00;100089.66;3575494;40;20037;-64
2021/07/06 08:02:43;;;;;;;4.32;2.20;;;;;;;18.36;100.00;100100.97;3577646;40;20087;-63
2021/07/06 08:05:10;;;;;;;4.93;2.50;;;;;;;18.34;100.00;100086.69;3575409;40;20035;-62
2021/07/06 08:07:36;;;;;;;4.85;2.63;;;;;;;18.43;100.00;100095.50;3575484;40;20309;-62
2021/07/06 08:10:06;;;;;;;6.80;2.80;;;;;;;18.53;100.00;100102.22;3581741;40;20409;-63
2021/07/06 08:12:33;;;;;;;3.15;2.20;;;;;;;18.61;100.00;100106.66;3586519;39;20287;-62
2021/07/06 08:14:59;;;;;;;5.63;2.20;;;;;;;18.67;100.00;100107.72;3583617;40;20390;-63
2021/07/06 08:17:26;;;;;;;4.57;2.45;;;;;;;18.60;100.00;100107.69;3587209;40;20035;-63
2021/07/06 08:19:59;;;;;;;5.20;2.00;;;;;;;18.65;100.00;100107.06;3586668;40;20110;-62
2021/07/06 08:22:25;;;;;;;7.53;1.52;;;;;;;18.63;100.00;100106.44;3586065;40;20057;-62
2021/07/06 08:24:52;;;;;;;4.25;1.35;;;;;;;18.58;100.00;100106.22;3586759;40;20037;-63
2021/07/06 08:27:20;;;;;;;4.05;1.42;;;;;;;18.61;100.00;100098.47;3586504;40;20043;-61
2021/07/06 08:29:46;;;;;;;4.10;1.35;;;;;;;18.55;100.00;100102.03;3583608;40;20036;-62
2021/07/06 08:32:13;;;;;;;2.33;1.35;;;;;;;18.65;100.00;100109.78;3586089;40;20040;-60
2021/07/06 08:34:39;;;;;;;3.10;1.33;;;;;;;18.59;100.00;100102.47;3586499;40;20036;-61
2021/07/06 08:37:06;;;;;;;5.95;1.40;;;;;;;18.50;100.00;100102.66;3587055;40;20054;-62
2021/07/06 08:39:33;;;;;;;2.08;1.20;;;;;;;18.44;100.00;100119.00;3584657;40;20280;-63
2021/07/06 08:42:00;;;;;;;2.22;1.48;;;;;;;18.54;100.00;100112.09;3587236;40;20047;-62
2021/07/06 08:44:28;;;;;;;3.10;1.40;;;;;;;18.59;100.00;100116.09;3585414;40;20040;-63
2021/07/06 08:46:59;;;;;;;3.85;1.55;;;;;;;18.63;100.00;100117.34;3587039;40;20357;-63
2021/07/06 08:49:27;;;;;;;2.28;1.30;;;;;;;18.62;100.00;100116.50;3584418;40;20037;-62
2021/07/06 08:51:53;;;;;;;3.65;1.40;;;;;;;18.85;100.00;100121.56;3587146;40;20041;-63
2021/07/06 08:54:21;;;;;;;2.30;1.50;;;;;;;18.92;100.00;100124.34;3585465;40;20033;-63
2021/07/06 08:56:49;;;;;;;7.55;1.60;;;;;;;19.14;100.00;100127.69;3587289;40;20290;-63
2021/07/06 08:59:15;;;;;;;3.92;1.17;;;;;;;19.13;100.00;100125.19;3586369;40;20036;-63
2021/07/06 09:01:43;;;;;;;2.55;1.10;;;;;;;19.23;100.00;100131.88;3586775;40;20035;-63
2021/07/06 09:04:11;;;;;;;5.60;1.40;;;;;;;19.40;100.00;100128.69;3581786;40;20045;-63
2021/07/06 09:06:54;;;;;;;5.28;1.40;;;;;;;19.51;100.00;100129.97;3586174;40;20031;-63
2021/07/06 09:09:22;;;;;;;5.18;1.48;;;;;;;19.63;100.00;100127.41;3586894;40;20098;-63
2021/07/06 09:11:50;;;;;;;4.70;1.20;;;;;;;19.86;100.00;100121.47;3586241;40;20076;-62
2021/07/06 09:14:17;;;;;;;3.22;1.40;;;;;;;20.07;100.00;100123.94;3586328;40;20029;-63
2021/07/06 09:16:45;;;;;;;6.78;1.30;;;;;;;19.95;100.00;100131.13;3586587;40;20265;-62
2021/07/06 09:19:19;;;;;;;5.37;1.17;;;;;;;20.17;100.00;100125.34;3586917;40;20041;-62
2021/07/06 09:21:46;;;;;;;3.58;1.40;;;;;;;20.40;100.00;100122.09;3585931;40;21879;-62
2021/07/06 09:24:24;;;;;;;6.15;1.20;;;;;;;20.18;100.00;100125.13;3586310;40;20041;-64
2021/07/06 09:26:51;;;;;;;3.85;1.30;;;;;;;20.40;100.00;100122.91;3586375;40;20134;-62
2021/07/06 09:29:23;;;;;;;4.32;1.10;;;;;;;20.58;100.00;100130.41;3586943;40;20040;-63
2021/07/06 09:31:52;;;;;;;2.38;0.93;;;;;;;20.51;100.00;100135.06;3584817;40;20044;-62
2021/07/06 09:34:19;;;;;;;3.80;1.00;;;;;;;20.55;100.00;100139.00;3587147;40;20320;-63
2021/07/06 09:36:47;;;;;;;5.47;1.35;;;;;;;20.52;100.00;100158.59;3587578;40;20049;-61
2021/07/06 09:39:19;;;;;;;5.43;1.20;;;;;;;20.46;100.00;100160.31;3586746;40;20269;-62
2021/07/06 09:42:00;;;;;;;3.92;1.08;;;;;;;20.44;100.00;100150.66;3587513;39;20035;-61
2021/07/06 09:44:29;;;;;;;4.22;0.98;;;;;;;20.53;100.00;100160.28;3587697;40;20048;-63
2021/07/06 09:47:04;;;;;;;3.88;1.30;;;;;;;20.08;100.00;100161.13;3585674;40;20115;-62
2021/07/06 09:49:32;;;;;;;3.13;1.00;;;;;;;20.29;100.00;100164.63;3586918;40;20028;-62
2021/07/06 09:52:09;;;;;;;4.60;1.48;;;;;;;20.21;100.00;100173.88;3584444;40;20053;-62
2021/07/06 09:54:37;;;;;;;2.72;1.00;;;;;;;20.39;100.00;100169.59;3585937;40;20040;-62
2021/07/06 09:57:06;;;;;;;4.57;1.13;;;;;;;20.38;100.00;100178.88;3588503;40;20068;-62
2021/07/06 09:59:33;;;;;;;9.88;1.73;;;;;;;20.89;100.00;100174.38;3587155;40;20372;-62
2021/07/06 10:02:03;;;;;;;4.38;1.35;;;;;;;21.34;100.00;100183.28;3587623;40;20036;-62
2021/07/06 10:04:30;;;;;;;5.10;1.85;;;;;;;21.37;100.00;100175.72;3586465;40;20055;-61
2021/07/06 10:06:58;;;;;;;5.15;1.30;;;;;;;21.30;100.00;100176.59;3586621;40;20021;-61
2021/07/06 10:09:26;;;;;;;4.33;1.23;;;;;;;21.13;100.00;100173.56;3586488;40;20052;-61
2021/07/06 10:11:53;;;;;;;7.68;1.83;;;;;;;21.30;100.00;100176.59;3588092;40;20033;-62
2021/07/06 10:14:20;;;;;;;6.05;1.33;;;;;;;20.76;100.00;100180.78;3586659;40;20113;-62
2021/07/06 10:16:47;;;;;;;1.13;0.80;;;;;;;20.92;100.00;100177.53;3588013;40;20047;-62
2021/07/06 10:19:15;;;;;;;2.45;0.98;;;;;;;21.21;100.00;100182.56;3585333;40;20036;-61
2021/07/06 10:21:41;;;;;;;2.50;1.02;;;;;;;21.55;100.00;100178.50;3585202;40;20040;-62
2021/07/06 10:24:08;;;;;;;4.10;1.17;;;;;;;21.87;100.00;100170.19;3587995;40;20052;-62
2021/07/06 10:26:38;;;;;;;8.38;1.30;;;;;;;21.94;100.00;100179.16;3587766;40;20035;-62
2021/07/06 10:29:05;;;;;;;5.97;1.40;;;;;;;21.51;100.00;100177.31;3586384;40;20028;-61
2021/07/06 10:31:31;;;;;;;7.47;1.95;;;;;;;21.62;100.00;100190.22;3586519;40;20358;-62
2021/07/06 10:34:01;;;;;;;7.00;1.30;;;;;;;22.03;100.00;100185.19;3586390;40;20033;-61
2021/07/06 10:36:38;;;;;;;11.05;1.30;;;;;;;21.29;100.00;100191.34;3587927;40;20142;-61
2021/07/06 10:39:06;;;;;;;8.05;1.27;;;;;;;21.32;100.00;100207.31;3585947;40;20033;-60
2021/07/06 10:42:08;;;;;;;3.13;1.08;;;;;;;21.08;100.00;100195.31;3582919;40;20053;-63
2021/07/06 10:44:35;;;;;;;5.38;1.17;;;;;;;21.33;100.00;100206.25;3550425;40;20081;-61
2021/07/06 10:47:03;;;;;;;5.50;0.93;;;;;;;21.22;100.00;100217.09;3548902;40;20045;-61
2021/07/06 10:49:33;;;;;;;3.17;1.10;;;;;;;21.74;100.00;100225.09;3569962;40;20048;-61
2021/07/06 10:52:06;;;;;;;7.00;1.25;;;;;;;21.28;100.00;100230.72;3587583;40;20064;-61
2021/07/06 10:54:37;;;;;;;2.88;1.00;;;;;;;21.09;100.00;100207.09;3584680;40;20057;-64
2021/07/06 10:57:24;;;;;;;6.93;1.50;;;;;;;21.29;100.00;100217.84;3588117;40;20047;-61
2021/07/06 10:59:58;;;;;;;5.38;1.30;;;;;;;20.64;100.00;100225.22;3586595;40;20040;-62
2021/07/06 11:02:26;;;;;;;3.47;1.10;;;;;;;20.48;100.00;100223.81;3586386;40;20134;-63
2021/07/06 11:05:05;;;;;;;4.53;1.10;;;;;;;20.80;100.00;100225.78;3576723;40;20035;-61
2021/07/06 11:10:37;;;;;;;4.85;1.83;;;;;;;21.42;100.00;100230.59;3580606;40;20122;-62
2021/07/06 11:13:31;;;;;;;5.55;1.38;;;;;;;21.24;100.00;100243.16;3587469;40;20029;-62
2021/07/06 11:16:00;;;;;;;5.22;1.25;;;;;;;21.66;100.00;100246.22;3584765;40;20134;-61
2021/07/06 11:18:48;;;;;;;4.82;1.20;;;;;;;21.62;100.00;100239.53;3587032;40;20047;-63
2021/07/06 11:21:33;;;;;;;5.80;1.85;;;;;;;21.19;100.00;100253.94;3584225;40;20032;-61
2021/07/06 11:24:17;;;;;;;5.93;1.52;;;;;;;20.88;100.00;100244.69;3583906;39;20064;-61
2021/07/06 11:26:45;;;;;;;6.18;1.85;;;;;;;21.56;100.00;100250.53;3586625;40;20060;-62
2021/07/06 11:29:12;;;;;;;7.10;1.30;;;;;;;21.49;100.00;100262.34;3587966;40;20058;-62